Bosaso, Bosaso Airport (HCMF)

NameBosaso Airport
CityBosaso
CountrySomalia
ICAOHCMF
IATABSA
Altitude1 m
CoordinatesGoogle Map
Live Air TrafficLiveATC.net
METARHCMF 131100Z 34003KT CAVOK 25/16 Q1016 NOSIG
2017-12-13 11:00:00 Wind: North-Northwest (340°) 1.54 m/s - Visibility: > 10000 m - Weather: CAVOK - Temperature: 25 °C - Dew point: 16 °C - Humidity: 57.5% - Pressure: 1016 hPa
Statistics

The table below shows the detailed information of all flights to/from Bosaso, Bosaso Airport (HCMF).